Data for 10/11/2013

Time Sea-Level Adjusted Pressure Absolute Pressure Temperature Relative Humidity Dew Point   
(mb) (inHg) (mb) (inHg) (C) (F) (%) (C) (F)
00:05 1014 29.94 843 24.89 4.8 40.6 71 -0.1 31.8
00:10 1014 29.94 843 24.89 4.8 40.6 69 -0.3 31.4
00:15 1014 29.94 843 24.89 4.7 40.4 70 -0.4 31.3
00:20 1014 29.94 843 24.89 4.7 40.5 70 -0.3 31.5
00:25 1014 29.94 843 24.89 4.7 40.5 70 -0.3 31.5
00:30 1014 29.94 843 24.89 4.7 40.4 70 -0.3 31.5
00:35 1014 29.94 843 24.89 4.6 40.3 71 -0.1 31.8
00:40 1014 29.94 843 24.89 4.4 40 73 -0 31.9
00:45 1014 29.94 843 24.89 4.2 39.6 74 -0.1 31.9
00:50 1014 29.94 843 24.89 4 39.2 75 -0.1 31.9
00:55 1014 29.94 843 24.89 3.9 39.1 75 -0.1 31.9
01:00 1014 29.94 843 24.89 3.9 39.1 74 -0.3 31.4
01:05 1014 29.94 843 24.89 4.1 39.4 73 -0.3 31.4
01:10 1014 29.94 843 24.89 4.2 39.5 72 -0.4 31.3
01:15 1014 29.94 843 24.89 4.2 39.6 72 -0.4 31.3
01:20 1014 29.94 843 24.89 4.2 39.6 72 -0.5 31.2
01:25 1014 29.94 843 24.89 4.2 39.6 72 -0.5 31.2
01:30 1014 29.94 844 24.92 4.2 39.6 70 -0.7 30.7
01:35 1014 29.94 844 24.92 4.4 39.8 69 -0.9 30.4
01:40 1014 29.94 844 24.92 4.5 40.1 67 -1 30.1
01:45 1014 29.94 844 24.92 4.5 40.1 68 -0.8 30.5
01:50 1015 29.97 844 24.92 4.4 39.9 69 -0.7 30.7
01:55 1015 29.97 844 24.92 4.3 39.8 70 -0.7 30.8
02:00 1015 29.97 844 24.92 4.2 39.6 69 -0.9 30.4
02:05 1015 29.97 844 24.92 4.4 39.9 69 -0.8 30.5
02:10 1015 29.97 844 24.92 4.4 39.9 69 -0.8 30.6
02:15 1015 29.97 844 24.92 4.4 39.9 69 -0.8 30.6
02:20 1015 29.97 844 24.92 4.4 39.9 69 -0.7 30.7
02:25 1015 29.97 844 24.92 4.4 39.8 71 -0.5 31.1
02:30 1015 29.97 844 24.92 4.3 39.7 71 -0.5 31
02:35 1015 29.97 844 24.92 4.2 39.6 71 -0.5 31
02:40 1015 29.97 844 24.92 4.3 39.7 70 -0.7 30.8
02:45 1015 29.97 844 24.92 4.3 39.8 70 -0.6 30.9
02:50 1015 29.97 844 24.92 4.3 39.8 71 -0.5 31.1
02:55 1015 29.97 844 24.92 4.4 39.9 70 -0.7 30.8
03:00 1015 29.97 844 24.92 4.4 39.9 69 -0.8 30.5
03:05 1015 29.97 844 24.92 4.5 40.1 69 -0.8 30.6
03:10 1015 29.97 844 24.92 4.4 40 69 -0.7 30.7
03:15 1015 29.97 844 24.92 4.4 39.8 69 -0.8 30.5
03:20 1015 29.97 844 24.92 4.3 39.8 70 -0.7 30.8
03:25 1015 29.97 844 24.92 4.3 39.7 68 -1.1 30.1
03:30 1015 29.97 845 24.95 4.4 39.9 67 -1.2 29.8
03:35 1016 30 845 24.95 4.6 40.2 66 -1.3 29.6
03:40 1016 30 845 24.95 4.6 40.4 65 -1.3 29.6
03:45 1016 30 845 24.95 4.7 40.4 65 -1.3 29.6
03:50 1016 30 845 24.95 4.6 40.4 64 -1.5 29.3
03:55 1016 30 845 24.95 4.7 40.4 65 -1.4 29.4
04:00 1016 30 845 24.95 4.7 40.4 65 -1.4 29.5
04:05 1016 30 845 24.95 4.6 40.3 65 -1.4 29.5
04:10 1016 30 845 24.95 4.5 40.2 65 -1.5 29.2
04:15 1016 30 845 24.95 4.5 40.1 64 -1.7 29
04:20 1016 30 845 24.95 4.5 40.1 64 -1.7 29
04:25 1016 30 845 24.95 4.5 40.1 64 -1.7 28.9
04:30 1016 30 845 24.95 4.5 40.1 64 -1.7 28.9
04:35 1016 30 845 24.95 4.5 40.2 63 -1.8 28.7
04:40 1016 30 845 24.95 4.6 40.3 63 -1.9 28.6
04:45 1016 30 845 24.95 4.6 40.3 63 -1.8 28.8
04:50 1016 30 845 24.95 4.5 40.2 63 -1.9 28.6
04:55 1016 30 845 24.95 4.5 40.2 59 -2.9 26.8
05:00 1016 30 845 24.95 4.7 40.5 55 -3.5 25.6
05:05 1016 30 845 24.95 4.8 40.6 57 -3 26.5
05:10 1016 30 845 24.95 4.7 40.5 57 -3.1 26.5
05:15 1016 30 845 24.95 4.6 40.4 57 -3 26.5
05:20 1016 30 845 24.95 4.6 40.3 57 -3.1 26.4
05:25 1016 30 845 24.95 4.6 40.2 58 -2.9 26.8
05:30 1016 30 845 24.95 4.4 39.9 59 -2.9 26.8
05:35 1016 30 845 24.95 4.3 39.8 59 -2.9 26.8
05:40 1016 30 845 24.95 4.2 39.6 59 -3 26.5
05:45 1016 30 845 24.95 4.2 39.6 58 -3.2 26.2
05:50 1016 30 845 24.95 4.3 39.7 58 -3.1 26.4
05:55 1016 30 845 24.95 4.3 39.7 59 -2.9 26.7
06:00 1016 30 846 24.98 4.2 39.6 60 -2.9 26.7
06:05 1016 30 846 24.98 4.2 39.5 60 -3 26.6
06:10 1016 30 846 24.98 4.2 39.5 60 -3 26.6
06:15 1017 30.03 846 24.98 4.2 39.5 59 -3.1 26.5
06:20 1016 30 846 24.98 4.1 39.4 59 -3.1 26.4
06:25 1016 30 846 24.98 4.1 39.3 59 -3.1 26.4
06:30 1017 30.03 846 24.98 4.1 39.3 59 -3.2 26.2
06:35 1017 30.03 846 24.98 4 39.2 59 -3.2 26.2
06:40 1017 30.03 846 24.98 4 39.2 59 -3.3 26
06:45 1017 30.03 846 24.98 4 39.2 58 -3.6 25.6
06:50 1017 30.03 846 24.98 4.1 39.3 57 -3.7 25.3
06:55 1017 30.03 846 24.98 4.1 39.4 56 -3.9 25
07:00 1017 30.03 846 24.98 4.1 39.4 56 -4 24.8
07:05 1017 30.03 846 24.98 4.1 39.3 56 -3.9 25
07:10 1017 30.03 846 24.98 4 39.2 57 -3.8 25.2
07:15 1017 30.03 846 24.98 4 39.2 57 -3.8 25.2
07:20 1017 30.03 846 24.98 4 39.1 56 -3.9 24.9
07:25 1017 30.03 846 24.98 4.1 39.3 56 -3.8 25.1
07:30 1017 30.03 846 24.98 4 39.1 57 -3.8 25.1
07:35 1017 30.03 846 24.98 3.9 39.1 57 -3.8 25.2
07:40 1017 30.03 846 24.98 4 39.1 58 -3.6 25.5
07:45 1017 30.03 846 24.98 4 39.2 58 -3.5 25.7
07:50 1017 30.03 846 24.98 4.1 39.3 58 -3.4 25.8
07:55 1017 30.03 847 25.01 4.2 39.5 58 -3.3 26
08:00 1017 30.03 847 25.01 4.2 39.6 58 -3.3 26.1
08:05 1017 30.03 847 25.01 4.3 39.7 57 -3.4 25.8
08:10 1017 30.03 847 25.01 4.4 39.9 57 -3.3 26.1
08:15 1017 30.03 847 25.01 4.5 40.2 56 -3.6 25.6
08:20 1017 30.03 847 25.01 5.1 41.2 51 -4.1 24.6
08:25 1018 30.06 847 25.01 5.3 41.6 51 -4.1 24.7
08:30 1018 30.06 847 25.01 5.8 42.4 50 -3.9 25
08:35 1018 30.06 847 25.01 5.5 41.9 51 -3.9 25
08:40 1018 30.06 847 25.01 5.1 41.2 53 -3.6 25.5
08:45 1018 30.06 847 25.01 5.2 41.3 51 -4.2 24.4
08:50 1018 30.06 847 25.01 5.2 41.3 50 -4.4 24
08:55 1018 30.06 847 25.01 5.3 41.5 50 -4.2 24.4
09:00 1018 30.06 847 25.01 5.3 41.5 51 -4 24.8
09:05 1018 30.06 847 25.01 5.2 41.4 52 -3.8 25.2
09:10 1018 30.06 847 25.01 5.2 41.4 52 -3.9 24.9
09:15 1018 30.06 847 25.01 5.2 41.3 52 -3.9 25
09:20 1018 30.06 847 25.01 5.3 41.5 51 -4.1 24.7
09:25 1018 30.06 847 25.01 5.5 42 49 -4.2 24.4
09:30 1018 30.06 847 25.01 5.6 42.1 50 -4 24.7
09:35 1018 30.06 847 25.01 6.2 43.2 47 -4.2 24.4
09:40 1018 30.06 847 25.01 6.4 43.6 47 -4 24.8
09:45 1018 30.06 847 25.01 6.3 43.4 47 -4 24.7
09:50 1018 30.06 847 25.01 6.8 44.2 44 -4.5 23.8
09:55 1018 30.06 847 25.01 6.5 43.7 44 -4.9 23.1
10:00 1018 30.06 847 25.01 6.5 43.6 42 -5.6 21.9
10:05 1018 30.06 847 25.01 6.2 43.2 42 -5.8 21.6
10:10 1018 30.06 847 25.01 6.2 43.2 42 -5.8 21.5
10:15 1018 30.06 847 25.01 7.1 44.8 39 -5.8 21.5
10:20 1018 30.06 847 25.01 7.5 45.4 38 -6 21.3
10:25 1018 30.06 847 25.01 7.8 46 35 -6.7 20
10:30 1018 30.06 847 25.01 8.1 46.6 36 -6 21.1
10:35 1018 30.06 847 25.01 8.5 47.3 35 -6.2 20.9
10:40 1018 30.06 847 25.01 8.4 47.2 34 -6.6 20.1
10:45 1018 30.06 847 25.01 8.8 47.9 33 -6.5 20.2
10:50 1018 30.06 847 25.01 9.1 48.3 33 -6.2 20.9
10:55 1018 30.06 847 25.01 8.4 47.2 35 -6.2 20.8
11:00 1018 30.06 847 25.01 7.8 46 37 -6.1 21
11:05 1018 30.06 847 25.01 7.5 45.4 36 -6.8 19.8
11:10 1018 30.06 847 25.01 7.1 44.8 35 -7.2 19.1
11:15 1018 30.06 847 25.01 7.3 45.2 35 -7 19.3
11:20 1018 30.06 847 25.01 8.5 47.3 31 -7.8 18
11:25 1018 30.06 847 25.01 8.6 47.4 32 -7.2 19.1
11:30 1018 30.06 847 25.01 8.2 46.8 32 -7.4 18.6
11:35 1018 30.06 847 25.01 7.8 46.1 33 -7.4 18.6
11:40 1018 30.06 847 25.01 8.3 46.9 30 -8.1 17.4
11:45 1018 30.06 847 25.01 7.9 46.1 33 -7.5 18.5
11:50 1018 30.06 847 25.01 8.5 47.2 32 -7.4 18.6
11:55 1018 30.06 847 25.01 9.4 49 29 -7.5 18.5
12:00 1018 30.06 847 25.01 9.7 49.4 29 -7.3 18.8
12:05 1018 30.06 847 25.01 8.8 47.9 30 -7.7 18.1
12:10 1018 30.06 847 25.01 8.1 46.7 32 -7.8 18
12:15 1018 30.06 847 25.01 8.3 47 31 -7.8 18
12:20 1018 30.06 847 25.01 8.5 47.2 32 -7.3 18.8
12:25 1018 30.06 847 25.01 8.6 47.4 32 -7.2 19
12:30 1018 30.06 847 25.01 8.1 46.7 32 -7.5 18.4
12:35 1018 30.06 847 25.01 8.5 47.2 32 -7.4 18.7
12:40 1018 30.06 847 25.01 9.1 48.3 30 -7.4 18.7
12:45 1018 30.06 847 25.01 8.9 48 31 -7.3 18.9
12:50 1018 30.06 847 25.01 8.8 47.9 31 -7.5 18.6
12:55 1018 30.06 847 25.01 9 48.2 31 -7.2 19
13:00 1018 30.06 847 25.01 9.1 48.5 30 -7.3 18.8
13:05 1018 30.06 847 25.01 9.5 49 30 -7.2 19
13:10 1018 30.06 847 25.01 9.6 49.3 29 -7.6 18.3
13:15 1018 30.06 847 25.01 9.9 49.8 28 -7.6 18.2
13:20 1018 30.06 847 25.01 9.9 49.8 29 -7.5 18.5
13:25 1017 30.03 847 25.01 9.1 48.5 31 -7.1 19.2
13:30 1018 30.06 847 25.01 8.9 48 31 -7.5 18.5
13:35 1018 30.06 847 25.01 8.5 47.3 32 -7.5 18.6
13:40 1018 30.06 847 25.01 8.5 47.3 31 -7.7 18.1
13:45 1018 30.06 847 25.01 9.5 49.1 29 -7.5 18.4
13:50 1018 30.06 847 25.01 10.2 50.3 29 -7.2 19
13:55 1018 30.06 847 25.01 10 50 28 -7.8 18
14:00 1018 30.06 847 25.01 10.1 50.2 28 -7.5 18.5
14:05 1018 30.06 847 25.01 9.9 49.8 29 -7.5 18.5
14:10 1018 30.06 847 25.01 10.2 50.4 27 -7.9 17.8
14:15 1018 30.06 847 25.01 10.2 50.3 28 -7.7 18.2
14:20 1018 30.06 847 25.01 9.8 49.7 28 -7.9 17.9
14:25 1018 30.06 847 25.01 9.2 48.6 28 -8.2 17.3
14:30 1018 30.06 847 25.01 9.6 49.3 27 -8.5 16.7
14:35 1018 30.06 847 25.01 10.2 50.3 26 -8.5 16.7
14:40 1018 30.06 847 25.01 10.2 50.3 27 -8 17.6
14:45 1018 30.06 847 25.01 10.4 50.8 26 -8.1 17.4
14:50 1018 30.06 847 25.01 10.6 51.2 26 -8.1 17.5
14:55 1018 30.06 847 25.01 10.3 50.5 26 -8.3 17.1
15:00 1018 30.06 847 25.01 10.5 50.9 25 -8.5 16.7
15:05 1018 30.06 847 25.01 10.7 51.2 25 -8.4 17
15:10 1018 30.06 847 25.01 10.6 51.1 25 -8.4 16.8
15:15 1018 30.06 847 25.01 10.6 51.1 26 -8.2 17.3
15:20 1018 30.06 847 25.01 10.6 51.1 25 -8.4 16.9
15:25 1018 30.06 847 25.01 10.7 51.3 25 -8.5 16.7
15:30 1018 30.06 847 25.01 10.2 50.4 26 -8.2 17.2
15:35 1018 30.06 847 25.01 10.4 50.7 26 -8.5 16.7
15:40 1018 30.06 847 25.01 10.6 51 25 -8.6 16.6
15:45 1018 30.06 847 25.01 10.7 51.3 25 -8.5 16.7
15:50 1017 30.03 847 25.01 10.9 51.5 23 -9.4 15
15:55 1018 30.06 847 25.01 10.8 51.4 24 -8.9 16.1
16:00 1018 30.06 847 25.01 10.7 51.3 24 -8.9 16
16:05 1018 30.06 847 25.01 10.5 50.9 24 -9.4 15
16:10 1018 30.06 847 25.01 10.3 50.5 24 -9.7 14.6
16:15 1018 30.06 847 25.01 10.2 50.4 24 -9.4 15.1
16:20 1018 30.06 847 25.01 10.2 50.3 24 -9.6 14.7
16:25 1018 30.06 847 25.01 10.2 50.3 24 -9.6 14.8
16:30 1018 30.06 847 25.01 10.2 50.3 24 -9.4 15.1
16:35 1018 30.06 847 25.01 10 50 24 -9.7 14.6
16:40 1018 30.06 847 25.01 10.2 50.4 24 -9.6 14.7
16:45 1018 30.06 847 25.01 10.4 50.6 24 -9.2 15.4
16:50 1018 30.06 847 25.01 10.2 50.3 25 -9.3 15.3
16:55 1018 30.06 847 25.01 10 50 25 -9.3 15.2
17:00 1018 30.06 847 25.01 10 50.1 25 -9.2 15.4
17:05 1018 30.06 847 25.01 9.9 49.9 25 -9 15.8
17:10 1018 30.06 847 25.01 9.9 49.7 26 -8.8 16.2
17:15 1018 30.06 847 25.01 9.7 49.4 26 -8.8 16.2
17:20 1018 30.06 847 25.01 9.6 49.3 27 -8.6 16.5
17:25 1018 30.06 847 25.01 9.5 49 28 -8.3 17
17:30 1018 30.06 847 25.01 9.1 48.4 28 -8.3 17.1
17:35 1018 30.06 847 25.01 8.8 47.9 29 -8.4 16.8
17:40 1018 30.06 847 25.01 8.4 47.2 30 -8.1 17.5
17:45 1018 30.06 847 25.01 8 46.4 30 -8.4 16.9
17:50 1018 30.06 847 25.01 7.8 46 31 -8.5 16.8
17:55 1018 30.06 847 25.01 7.6 45.6 32 -8.2 17.3
18:00 1018 30.06 847 25.01 7.3 45.1 32 -8.2 17.2
18:05 1018 30.06 847 25.01 7 44.6 34 -7.9 17.8
18:10 1018 30.06 847 25.01 6.7 44 38 -6.7 20
18:15 1018 30.06 847 25.01 5.8 42.4 43 -5.8 21.6
18:20 1018 30.06 847 25.01 5.1 41.1 45 -5.8 21.5
18:25 1018 30.06 847 25.01 4.7 40.5 46 -6 21.3
18:30 1018 30.06 847 25.01 4.4 39.9 47 -6 21.2
18:35 1018 30.06 847 25.01 4.3 39.7 46 -6.2 20.8
18:40 1018 30.06 847 25.01 4.1 39.4 46 -6.4 20.5
18:45 1018 30.06 847 25.01 4.1 39.3 46 -6.4 20.4
18:50 1018 30.06 847 25.01 3.9 39.1 47 -6.3 20.7
18:55 1018 30.06 847 25.01 3.7 38.7 48 -6.2 20.8
19:00 1018 30.06 847 25.01 3.6 38.4 49 -6.2 20.8
19:05 1018 30.06 847 25.01 3.4 38.2 49 -6.2 20.9
19:10 1018 30.06 847 25.01 3.2 37.7 50 -6.1 20.9
19:15 1018 30.06 847 25.01 3 37.5 52 -5.9 21.3
19:20 1018 30.06 847 25.01 2.8 37.1 52 -6.1 21.1
19:25 1018 30.06 847 25.01 2.7 36.8 52 -6.1 21
19:30 1018 30.06 847 25.01 2.4 36.4 54 -6 21.2
19:35 1018 30.06 847 25.01 2.1 35.8 55 -6 21.3
19:40 1018 30.06 847 25.01 1.9 35.5 55 -6.2 20.8
19:45 1018 30.06 847 25.01 2 35.6 54 -6.3 20.7
19:50 1018 30.06 847 25.01 2 35.6 53 -6.6 20.2
19:55 1018 30.06 847 25.01 2.2 35.9 50 -7.2 19.1
20:00 1018 30.06 847 25.01 2.7 36.9 48 -7.2 19.1
20:05 1018 30.06 847 25.01 2.9 37.3 48 -7.1 19.2
20:10 1018 30.06 847 25.01 2.8 37.1 49 -6.8 19.8
20:15 1018 30.06 847 25.01 2.5 36.5 50 -7 19.3
20:20 1018 30.06 847 25.01 2.3 36.1 50 -7 19.4
20:25 1018 30.06 847 25.01 2.1 35.7 52 -6.8 19.7
20:30 1018 30.06 847 25.01 1.8 35.3 53 -6.8 19.7
20:35 1018 30.06 847 25.01 1.7 35.1 53 -6.8 19.8
20:40 1018 30.06 847 25.01 1.6 34.8 54 -6.8 19.8
20:45 1018 30.06 847 25.01 1.5 34.8 54 -6.8 19.8
20:50 1018 30.06 847 25.01 1.4 34.5 55 -6.7 19.9
20:55 1018 30.06 847 25.01 1.2 34.2 55 -6.8 19.8
21:00 1018 30.06 848 25.04 1.3 34.3 54 -6.9 19.5
21:05 1018 30.06 848 25.04 1.4 34.6 53 -7.2 19.1
21:10 1018 30.06 848 25.04 1.6 34.8 53 -7 19.4
21:15 1018 30.06 848 25.04 1.4 34.5 55 -6.6 20.1
21:20 1018 30.06 848 25.04 1 33.9 56 -6.8 19.7
21:25 1018 30.06 848 25.04 1.1 34 54 -7.1 19.3
21:30 1018 30.06 848 25.04 1.3 34.4 53 -7.1 19.2
21:35 1018 30.06 848 25.04 1.3 34.4 54 -6.9 19.5
21:40 1018 30.06 848 25.04 1.4 34.5 53 -7.1 19.1
21:45 1018 30.06 848 25.04 1.5 34.7 52 -7.3 18.8
21:50 1018 30.06 847 25.01 1.6 35 52 -7.1 19.3
21:55 1018 30.06 847 25.01 1.5 34.8 53 -7 19.4
22:00 1018 30.06 848 25.04 1.4 34.5 54 -7 19.4
22:05 1018 30.06 848 25.04 1.3 34.4 54 -7 19.4
22:10 1018 30.06 848 25.04 1.1 33.9 56 -6.7 20
22:15 1018 30.06 848 25.04 0.8 33.4 56 -6.9 19.5
22:20 1018 30.06 848 25.04 0.7 33.3 57 -7 19.5
22:25 1018 30.06 848 25.04 0.7 33.3 56 -7 19.5
22:30 1018 30.06 847 25.01 0.6 33.1 58 -6.8 19.8
22:35 1018 30.06 847 25.01 0.5 32.8 58 -6.9 19.6
22:40 1018 30.06 847 25.01 0.6 33.1 56 -7.2 19.1
22:45 1018 30.06 847 25.01 0.7 33.3 57 -6.9 19.6
22:50 1018 30.06 847 25.01 0.6 33 57 -7 19.4
22:55 1018 30.06 847 25.01 0.5 33 57 -7 19.4
23:00 1018 30.06 848 25.04 0.4 32.7 58 -7 19.5
23:05 1018 30.06 848 25.04 0.4 32.6 57 -7.1 19.2
23:10 1018 30.06 848 25.04 0.6 33 55 -7.4 18.7
23:15 1018 30.06 848 25.04 0.8 33.5 54 -7.4 18.6
23:20 1018 30.06 847 25.01 1.3 34.3 52 -7.6 18.2
23:25 1018 30.06 847 25.01 1.4 34.5 52 -7.4 18.8
23:30 1018 30.06 847 25.01 1.2 34.2 53 -7.3 18.9
23:35 1018 30.06 847 25.01 0.9 33.7 55 -7.2 19.1
23:40 1018 30.06 847 25.01 0.7 33.3 56 -7.1 19.2
23:45 1018 30.06 847 25.01 0.5 32.9 56 -7.2 19
23:50 1018 30.06 847 25.01 0.5 32.9 57 -7.2 19.1
23:55 1018 30.06 847 25.01 0.4 32.7 57 -7.1 19.1
24:00 1018 30.06 847 25.01 0.3 32.6 56 -7.4 18.7